Time;durP1;ratioP1;P1;durP2;ratioP2;P2;SDS_P1;SDS_P2;PMS_P1;PMS_P2;Temp;Humidity;BMP_temperature;BMP_pressure;BME280_temperature;BME280_humidity;BME280_pressure;Samples;Min_cycle;Max_cycle;Signal;HPM_P1;HPM_P2
2023/12/29 00:03:58;;;;;;;5.77;4.50;;;4.80;99.90;;;;;;8241788;28;20208;-64
2023/12/29 00:07:59;;;;;;;6.00;3.33;;;4.80;70.80;;;;;;8239880;28;20209;-63
2023/12/29 00:11:59;;;;;;;5.20;3.00;;;4.70;99.90;;;;;;8240292;28;20286;-62
2023/12/29 00:16:00;;;;;;;4.03;3.07;;;4.70;1.00;;;;;;8240958;28;20250;-63
2023/12/29 00:20:01;;;;;;;4.60;3.10;;;4.70;12.00;;;;;;8243665;28;20193;-64
2023/12/29 00:24:02;;;;;;;4.33;3.00;;;4.60;68.90;;;;;;8244987;28;20286;-64
2023/12/29 00:28:04;;;;;;;3.77;3.20;;;4.70;1.00;;;;;;8242207;28;20347;-63
2023/12/29 00:32:05;;;;;;;3.57;3.13;;;4.70;99.90;;;;;;8242478;28;20223;-64
2023/12/29 00:36:06;;;;;;;5.47;3.10;;;4.70;99.90;;;;;;8236040;28;21484;-64
2023/12/29 00:40:07;;;;;;;4.90;3.00;;;4.60;99.90;;;;;;8239987;28;20284;-63
2023/12/29 00:44:08;;;;;;;4.20;3.27;;;4.60;1.00;;;;;;8241185;28;20191;-64
2023/12/29 00:48:09;;;;;;;4.23;3.20;;;4.60;99.90;;;;;;8241012;28;20240;-64
2023/12/29 00:52:10;;;;;;;4.40;3.50;;;4.60;88.40;;;;;;8244655;28;20256;-64
2023/12/29 00:56:11;;;;;;;5.93;3.70;;;4.60;99.90;;;;;;8237379;28;20243;-63
2023/12/29 01:00:12;;;;;;;4.43;3.13;;;4.50;99.90;;;;;;8232249;28;20188;-63
2023/12/29 01:04:13;;;;;;;5.13;3.60;;;4.50;99.90;;;;;;8233330;28;20200;-63
2023/12/29 01:08:14;;;;;;;6.17;4.00;;;4.40;99.90;;;;;;8229278;28;20231;-63
2023/12/29 01:12:15;;;;;;;6.37;4.13;;;4.30;1.00;;;;;;8232415;28;20222;-64
2023/12/29 01:16:15;;;;;;;8.23;5.20;;;4.20;99.90;;;;;;8232920;28;20184;-63
2023/12/29 01:20:16;;;;;;;6.63;4.20;;;4.20;99.90;;;;;;8229619;28;20189;-63
2023/12/29 01:24:17;;;;;;;6.23;4.10;;;4.30;1.00;;;;;;8226071;28;20184;-63
2023/12/29 01:28:18;;;;;;;7.97;3.87;;;4.40;99.90;;;;;;8230424;28;20212;-63
2023/12/29 01:32:21;;;;;;;5.93;3.50;;;4.40;99.90;;;;;;8235971;28;20212;-63
2023/12/29 01:36:22;;;;;;;4.47;3.23;;;4.40;1.00;;;;;;8226181;28;20216;-63
2023/12/29 01:40:23;;;;;;;5.13;3.27;;;4.40;99.90;;;;;;8229390;28;20192;-64
2023/12/29 01:44:24;;;;;;;7.40;3.53;;;4.40;99.90;;;;;;8229380;28;20199;-63
2023/12/29 01:48:25;;;;;;;4.90;2.87;;;4.50;99.90;;;;;;8227437;28;20215;-63
2023/12/29 01:52:26;;;;;;;3.90;2.80;;;4.40;1.00;;;;;;8229469;28;20185;-63
2023/12/29 01:56:27;;;;;;;4.27;2.93;;;4.40;1.00;;;;;;8241031;28;20238;-62
2023/12/29 02:00:31;;;;;;;4.07;2.90;;;4.50;99.90;;;;;;8231975;28;20188;-62
2023/12/29 02:04:33;;;;;;;4.83;2.90;;;4.40;6.00;;;;;;8231502;28;20239;-62
2023/12/29 02:08:34;;;;;;;5.03;3.30;;;4.30;99.90;;;;;;8230253;28;20215;-62
2023/12/29 02:12:36;;;;;;;6.83;3.20;;;4.10;1.00;;;;;;8229913;28;20190;-65
2023/12/29 02:16:43;;;;;;;5.23;3.00;;;3.90;1.00;;;;;;8226210;28;20223;-63
2023/12/29 02:20:44;;;;;;;4.77;2.93;;;3.90;99.90;;;;;;8227913;28;20196;-63
2023/12/29 02:24:48;;;;;;;3.07;2.50;;;3.90;1.00;;;;;;8225055;28;20194;-63
2023/12/29 02:29:01;;;;;;;3.03;2.07;;;4.00;1.00;;;;;;8227354;28;20335;-64
2023/12/29 02:33:07;;;;;;;3.43;2.60;;;4.00;99.90;;;;;;8247762;28;20223;-63
2023/12/29 02:37:12;;;;;;;2.43;2.13;;;3.90;99.90;;;;;;8227135;28;20188;-64
2023/12/29 02:41:13;;;;;;;2.57;2.17;;;4.00;1.00;;;;;;8229644;28;20229;-63
2023/12/29 02:45:15;;;;;;;2.57;2.30;;;4.00;1.00;;;;;;8237854;28;20187;-65
2023/12/29 02:49:16;;;;;;;3.10;2.27;;;4.10;99.90;;;;;;8223630;28;20306;-62
2023/12/29 02:53:16;;;;;;;2.20;2.00;;;4.20;99.90;;;;;;8227053;28;20180;-64
2023/12/29 02:57:18;;;;;;;3.10;2.20;;;4.20;99.90;;;;;;8241495;23;20227;-78
2023/12/29 03:01:19;;;;;;;2.47;1.80;;;4.30;99.90;;;;;;8264177;28;20180;-81
2023/12/29 03:05:19;;;;;;;2.63;1.80;;;4.40;99.90;;;;;;8272626;28;20186;-81
2023/12/29 03:09:20;;;;;;;3.37;2.20;;;4.40;99.90;;;;;;8263246;28;20229;-81
2023/12/29 03:13:21;;;;;;;2.63;1.87;;;4.40;1.00;;;;;;8273882;28;20195;-81
2023/12/29 03:17:22;;;;;;;2.10;1.90;;;4.40;99.90;;;;;;8269437;28;20199;-81
2023/12/29 03:21:23;;;;;;;3.63;2.20;;;4.50;99.90;;;;;;8258378;28;20192;-81
2023/12/29 03:25:24;;;;;;;2.40;2.10;;;4.70;1.00;;;;;;8262396;28;20183;-81
2023/12/29 03:29:28;;;;;;;2.77;2.10;;;4.70;99.90;;;;;;8274923;28;20242;-81
2023/12/29 03:33:28;;;;;;;2.10;1.90;;;4.90;96.80;;;;;;8263010;28;20188;-81
2023/12/29 03:37:29;;;;;;;2.70;2.20;;;4.90;1.00;;;;;;8268205;28;20192;-80
2023/12/29 03:41:30;;;;;;;4.53;2.30;;;5.00;99.90;;;;;;8268907;28;20214;-79
2023/12/29 03:45:31;;;;;;;2.30;2.10;;;5.00;99.90;;;;;;8266504;28;20390;-80
2023/12/29 03:49:35;;;;;;;2.37;1.93;;;5.00;99.90;;;;;;8268048;28;20542;-80
2023/12/29 03:53:38;;;;;;;3.37;2.30;;;5.10;99.90;;;;;;8266758;28;20264;-80
2023/12/29 03:57:39;;;;;;;2.87;2.17;;;5.00;99.90;;;;;;8283630;28;20208;-80
2023/12/29 04:01:40;;;;;;;3.37;2.23;;;5.10;99.90;;;;;;8268568;28;20187;-80
2023/12/29 04:05:41;;;;;;;3.10;2.70;;;5.10;99.90;;;;;;8272508;28;20191;-80
2023/12/29 04:09:42;;;;;;;3.40;3.07;;;5.20;99.90;;;;;;8274951;28;20215;-79
2023/12/29 04:13:43;;;;;;;4.67;3.17;;;5.20;99.90;;;;;;8270146;28;20264;-78
2023/12/29 04:17:43;;;;;;;4.93;3.10;;;5.20;99.90;;;;;;8278009;28;20215;-79
2023/12/29 04:21:53;;;;;;;2.70;2.40;;;5.30;99.90;;;;;;8281959;28;20190;-79
2023/12/29 04:25:53;;;;;;;3.13;2.37;;;5.30;99.90;;;;;;8280573;28;20215;-79
2023/12/29 04:29:54;;;;;;;4.33;2.70;;;5.30;99.90;;;;;;8273886;28;20277;-80
2023/12/29 04:33:55;;;;;;;3.33;2.63;;;5.30;99.90;;;;;;8267229;28;20222;-79
2023/12/29 04:37:56;;;;;;;3.33;2.77;;;5.30;99.90;;;;;;8267247;28;20274;-77
2023/12/29 04:41:57;;;;;;;3.77;3.00;;;5.30;99.90;;;;;;8263054;28;20202;-78
2023/12/29 04:45:58;;;;;;;3.53;3.10;;;5.40;99.90;;;;;;8262385;28;20215;-79
2023/12/29 04:49:59;;;;;;;5.20;3.30;;;5.40;99.90;;;;;;8271355;28;20238;-79
2023/12/29 04:53:59;;;;;;;2.63;2.33;;;5.50;99.90;;;;;;8260600;28;20190;-78
2023/12/29 04:58:00;;;;;;;4.13;2.90;;;5.50;99.90;;;;;;8267569;28;20212;-79
2023/12/29 05:02:01;;;;;;;2.93;2.63;;;5.60;99.90;;;;;;8263153;28;20241;-79
2023/12/29 05:06:02;;;;;;;3.27;2.73;;;5.70;99.90;;;;;;8263420;28;21299;-79
2023/12/29 05:10:03;;;;;;;3.50;3.00;;;5.80;99.90;;;;;;8263949;28;20235;-78
2023/12/29 05:14:04;;;;;;;3.10;2.80;;;5.80;99.90;;;;;;8278483;28;20189;-79
2023/12/29 05:18:05;;;;;;;3.93;2.40;;;5.90;1.00;;;;;;8263156;28;20402;-79
2023/12/29 05:22:06;;;;;;;4.43;2.70;;;5.90;1.00;;;;;;8265788;28;20244;-79
2023/12/29 05:26:07;;;;;;;4.03;2.57;;;6.00;1.00;;;;;;8263256;28;20186;-78
2023/12/29 05:30:08;;;;;;;3.33;2.40;;;6.00;1.00;;;;;;8265699;28;20539;-79
2023/12/29 05:34:09;;;;;;;3.43;2.73;;;5.90;1.00;;;;;;8262426;28;20195;-78
2023/12/29 05:38:10;;;;;;;3.23;2.50;;;5.90;1.00;;;;;;8263738;28;20219;-77
2023/12/29 05:42:11;;;;;;;3.77;2.67;;;5.90;1.00;;;;;;8258875;28;20377;-78
2023/12/29 05:46:12;;;;;;;3.23;2.60;;;5.90;1.00;;;;;;8263328;28;20187;-79
2023/12/29 05:50:13;;;;;;;3.70;2.83;;;5.90;1.00;;;;;;8266992;28;20879;-79
2023/12/29 05:54:14;;;;;;;3.07;2.77;;;5.90;1.00;;;;;;8257896;28;20195;-79
2023/12/29 05:58:14;;;;;;;4.37;3.07;;;6.00;1.00;;;;;;8260050;28;20337;-78
2023/12/29 06:02:15;;;;;;;4.87;3.20;;;6.00;1.00;;;;;;8263127;28;20191;-79
2023/12/29 06:06:16;;;;;;;4.70;3.13;;;6.00;99.90;;;;;;8259150;28;20209;-78
2023/12/29 06:10:17;;;;;;;4.43;3.17;;;6.00;99.90;;;;;;8263170;28;20571;-78
2023/12/29 06:14:18;;;;;;;3.20;2.90;;;6.00;99.90;;;;;;8256085;28;20183;-78
2023/12/29 06:18:18;;;;;;;3.30;2.90;;;6.10;99.90;;;;;;8264341;28;20248;-79
2023/12/29 06:22:22;;;;;;;3.60;3.00;;;6.10;99.90;;;;;;8262973;28;20296;-80
2023/12/29 06:26:23;;;;;;;6.50;2.70;;;6.10;99.90;;;;;;8257866;28;20197;-80
2023/12/29 06:30:24;;;;;;;3.00;2.40;;;6.00;99.90;;;;;;8256823;28;20274;-80
2023/12/29 06:34:24;;;;;;;3.90;2.93;;;6.00;99.90;;;;;;8265371;28;20185;-79
2023/12/29 06:38:25;;;;;;;2.50;2.17;;;6.00;99.90;;;;;;8258575;28;20248;-78
2023/12/29 06:42:27;;;;;;;4.63;2.50;;;6.10;99.90;;;;;;8261641;28;20207;-79
2023/12/29 06:46:27;;;;;;;4.83;2.80;;;6.10;99.90;;;;;;8262667;28;20438;-79
2023/12/29 06:50:28;;;;;;;3.07;2.03;;;6.20;99.90;;;;;;8267769;28;20365;-78
2023/12/29 06:54:34;;;;;;;3.97;2.60;;;6.20;99.90;;;;;;8260517;28;20207;-80
2023/12/29 06:58:35;;;;;;;3.03;2.13;;;6.20;99.90;;;;;;8263478;28;20199;-79
2023/12/29 07:02:42;;;;;;;2.80;2.30;;;6.30;99.90;;;;;;8263160;28;20217;-78
2023/12/29 07:06:43;;;;;;;2.63;2.30;;;6.30;99.90;;;;;;8271176;28;20192;-79
2023/12/29 07:10:44;;;;;;;2.63;2.43;;;6.30;99.90;;;;;;8297418;28;20222;-79
2023/12/29 07:14:45;;;;;;;2.93;2.27;;;6.30;99.90;;;;;;8283601;28;20226;-77
2023/12/29 07:18:46;;;;;;;2.77;2.20;;;6.40;99.90;;;;;;8289779;28;20191;-80
2023/12/29 07:22:46;;;;;;;2.57;1.90;;;6.40;99.90;;;;;;8265512;28;20279;-79
2023/12/29 07:26:47;;;;;;;3.13;2.27;;;6.40;99.90;;;;;;8261844;28;20195;-78
2023/12/29 07:30:48;;;;;;;3.30;2.20;;;6.40;99.90;;;;;;8269667;28;20191;-78
2023/12/29 07:34:49;;;;;;;2.50;2.30;;;6.50;99.90;;;;;;8256907;28;20191;-78
2023/12/29 07:38:49;;;;;;;2.23;2.00;;;6.60;99.90;;;;;;8276250;28;20210;-79
2023/12/29 07:42:50;;;;;;;2.77;1.97;;;6.60;99.90;;;;;;8261001;28;20246;-78
2023/12/29 07:46:51;;;;;;;2.20;1.80;;;6.70;99.90;;;;;;8265370;28;20203;-79
2023/12/29 07:50:52;;;;;;;4.37;1.80;;;6.70;99.90;;;;;;8274715;28;20187;-79
2023/12/29 07:54:52;;;;;;;2.10;1.90;;;6.80;99.90;;;;;;8282808;28;20416;-79
2023/12/29 07:58:53;;;;;;;2.07;1.73;;;6.80;99.90;;;;;;8269194;28;20225;-79
2023/12/29 08:02:54;;;;;;;3.40;1.87;;;6.90;99.90;;;;;;8270608;28;20221;-78
2023/12/29 08:06:55;;;;;;;3.90;1.77;;;7.00;99.90;;;;;;8269561;28;20269;-78
2023/12/29 08:10:56;;;;;;;2.57;2.33;;;7.10;95.80;;;;;;8275013;28;20179;-78
2023/12/29 08:14:56;;;;;;;2.53;1.93;;;7.20;90.70;;;;;;8272683;28;20207;-79
2023/12/29 08:18:57;;;;;;;2.93;2.00;;;7.20;82.30;;;;;;8268258;28;20198;-79
2023/12/29 08:23:02;;;;;;;3.53;1.90;;;7.20;78.50;;;;;;8273315;28;20347;-79
2023/12/29 08:27:03;;;;;;;2.87;2.27;;;7.30;71.80;;;;;;8275258;28;20308;-79
2023/12/29 08:31:05;;;;;;;2.93;1.93;;;7.30;68.80;;;;;;8268508;28;20291;-79
2023/12/29 08:35:06;;;;;;;3.03;1.80;;;7.40;62.30;;;;;;8267928;28;20833;-78
2023/12/29 08:39:07;;;;;;;3.30;2.57;;;7.50;51.50;;;;;;8276956;28;20195;-79
2023/12/29 08:43:11;;;;;;;2.17;1.70;;;7.60;39.00;;;;;;8259063;28;20192;-79
2023/12/29 08:47:11;;;;;;;2.43;1.90;;;7.60;30.50;;;;;;8268695;28;20294;-79
2023/12/29 08:51:12;;;;;;;2.07;1.53;;;7.80;29.60;;;;;;8268680;28;20318;-78
2023/12/29 08:55:13;;;;;;;2.03;1.67;;;8.00;2.50;;;;;;8282641;28;20297;-78
2023/12/29 08:59:14;;;;;;;4.47;1.80;;;8.10;1.00;;;;;;8270734;28;20207;-79
2023/12/29 09:03:15;;;;;;;3.13;1.93;;;8.30;1.00;;;;;;8276899;28;20196;-79
2023/12/29 09:07:16;;;;;;;3.23;1.87;;;8.40;1.00;;;;;;8270768;28;20214;-79
2023/12/29 09:11:16;;;;;;;4.97;1.30;;;8.50;1.00;;;;;;8270668;28;20208;-79
2023/12/29 09:15:17;;;;;;;1.80;1.37;;;8.60;1.00;;;;;;8268456;28;20208;-79
2023/12/29 09:19:18;;;;;;;1.80;1.30;;;8.60;1.00;;;;;;8275223;28;20188;-78
2023/12/29 09:23:20;;;;;;;2.37;1.50;;;8.70;1.00;;;;;;8275006;28;20471;-79
2023/12/29 09:27:20;;;;;;;1.33;1.13;;;8.80;1.00;;;;;;8274522;28;20236;-79
2023/12/29 09:31:21;;;;;;;1.87;1.23;;;8.90;1.00;;;;;;8275452;28;20236;-79
2023/12/29 09:35:26;;;;;;;2.50;1.23;;;9.00;1.00;;;;;;8274251;28;20188;-79
2023/12/29 09:39:27;;;;;;;2.10;1.33;;;9.10;1.00;;;;;;8283660;28;20191;-79
2023/12/29 09:43:33;;;;;;;1.77;1.20;;;9.20;1.00;;;;;;8281197;28;20188;-79
2023/12/29 09:47:41;;;;;;;2.87;1.43;;;9.30;1.00;;;;;;8269990;28;20231;-79
2023/12/29 09:51:43;;;;;;;1.43;1.20;;;9.40;1.00;;;;;;8277859;28;20428;-78
2023/12/29 09:55:45;;;;;;;1.97;1.27;;;9.50;1.00;;;;;;8283637;28;20213;-78
2023/12/29 09:59:51;;;;;;;1.97;1.33;;;9.60;1.00;;;;;;8298410;28;20201;-78
2023/12/29 10:03:52;;;;;;;2.20;1.37;;;9.60;1.00;;;;;;8322127;28;20295;-78
2023/12/29 10:07:54;;;;;;;2.27;1.43;;;9.70;1.00;;;;;;8304661;28;20210;-79
2023/12/29 10:11:56;;;;;;;2.17;1.50;;;9.80;1.00;;;;;;8289892;28;20197;-78
2023/12/29 10:16:04;;;;;;;3.07;2.00;;;9.90;1.00;;;;;;8276515;28;20213;-78
2023/12/29 10:20:44;;;;;;;2.70;1.60;;;10.00;1.00;;;;;;8276256;28;20222;-78
2023/12/29 10:24:46;;;;;;;3.03;1.27;;;10.00;1.00;;;;;;8264999;28;20180;-77
2023/12/29 10:28:48;;;;;;;2.73;2.10;;;10.10;1.00;;;;;;8257146;28;20356;-78
2023/12/29 10:32:50;;;;;;;2.40;1.57;;;10.20;1.00;;;;;;8279841;28;20291;-77
2023/12/29 10:36:51;;;;;;;1.87;1.20;;;10.30;1.00;;;;;;8274422;28;20206;-78
2023/12/29 10:40:52;;;;;;;3.17;1.20;;;10.30;1.00;;;;;;8276235;28;20251;-77
2023/12/29 10:45:10;;;;;;;2.93;1.40;;;10.40;1.00;;;;;;8278453;28;20191;-78
2023/12/29 10:49:13;;;;;;;1.87;1.20;;;10.40;1.00;;;;;;8288464;28;20214;-77
2023/12/29 10:53:17;;;;;;;2.37;1.77;;;10.40;1.00;;;;;;8284973;28;20209;-78
2023/12/29 10:57:18;;;;;;;2.03;1.30;;;10.40;1.00;;;;;;8276308;28;20201;-79
2023/12/29 11:01:19;;;;;;;1.77;1.20;;;10.40;1.00;;;;;;8271615;28;20193;-78
2023/12/29 11:05:25;;;;;;;2.00;1.50;;;10.40;1.00;;;;;;8274259;28;20282;-79
2023/12/29 11:09:31;;;;;;;4.23;1.67;;;10.50;1.00;;;;;;8273109;28;20553;-80
2023/12/29 11:13:33;;;;;;;2.07;1.40;;;10.50;1.00;;;;;;8277735;28;20190;-80
2023/12/29 11:17:35;;;;;;;2.20;1.47;;;10.70;1.00;;;;;;8268064;28;20480;-80
2023/12/29 11:21:37;;;;;;;2.20;1.43;;;10.80;1.00;;;;;;8276817;28;20188;-80
2023/12/29 11:25:38;;;;;;;2.67;1.60;;;10.80;1.00;;;;;;8275281;28;20190;-80
2023/12/29 11:29:41;;;;;;;2.60;1.63;;;10.90;1.00;;;;;;8277191;28;20239;-80
2023/12/29 11:33:48;;;;;;;2.83;1.53;;;11.00;1.00;;;;;;8269151;28;20249;-79
2023/12/29 11:38:07;;;;;;;2.13;1.50;;;11.00;1.00;;;;;;8288619;28;20187;-80
2023/12/29 11:42:19;;;;;;;2.57;1.53;;;11.00;1.00;;;;;;8278570;28;20201;-80
2023/12/29 11:46:35;;;;;;;6.00;5.40;;;10.90;1.00;;;;;;8275002;28;20273;-80
2023/12/29 11:50:38;;;;;;;2.10;1.57;;;10.90;1.00;;;;;;8280755;28;20211;-80
2023/12/29 11:54:39;;;;;;;2.57;1.67;;;10.90;1.00;;;;;;8274818;28;20215;-80
2023/12/29 11:58:40;;;;;;;2.70;1.57;;;10.90;1.00;;;;;;8276524;28;20481;-80
2023/12/29 12:02:41;;;;;;;1.77;1.23;;;11.00;1.00;;;;;;8270873;28;20234;-80
2023/12/29 12:06:42;;;;;;;2.80;1.40;;;10.90;1.00;;;;;;8270547;28;20306;-80
2023/12/29 12:10:42;;;;;;;3.50;1.60;;;10.80;1.00;;;;;;8261181;28;20219;-80
2023/12/29 12:14:49;;;;;;;3.27;1.57;;;10.70;1.00;;;;;;8264582;28;20200;-79
2023/12/29 12:18:50;;;;;;;3.03;1.40;;;10.70;1.00;;;;;;8271795;28;20612;-79
2023/12/29 12:23:01;;;;;;;2.20;1.50;;;10.70;1.00;;;;;;8270476;28;20195;-79
2023/12/29 12:27:10;;;;;;;2.10;1.40;;;10.70;1.00;;;;;;8273731;28;20198;-80
2023/12/29 12:31:13;;;;;;;2.67;1.30;;;10.70;1.00;;;;;;8268263;28;20311;-80
2023/12/29 12:35:18;;;;;;;1.83;1.27;;;10.60;1.00;;;;;;8271513;28;20270;-79
2023/12/29 12:39:19;;;;;;;2.80;1.17;;;10.60;1.00;;;;;;8263442;28;20194;-80
2023/12/29 12:43:24;;;;;;;2.00;1.30;;;10.60;1.00;;;;;;8268990;28;20187;-80
2023/12/29 12:47:34;;;;;;;1.93;1.30;;;10.50;1.00;;;;;;8271858;28;20240;-80
2023/12/29 12:51:35;;;;;;;4.07;1.70;;;10.50;1.00;;;;;;8281820;28;20275;-79
2023/12/29 12:55:37;;;;;;;3.83;1.63;;;10.50;1.00;;;;;;8279920;28;20179;-79
2023/12/29 12:59:38;;;;;;;3.07;1.70;;;10.40;1.00;;;;;;8299259;28;20225;-79
2023/12/29 13:03:41;;;;;;;2.80;1.70;;;10.30;1.00;;;;;;8319076;28;20203;-80
2023/12/29 13:07:42;;;;;;;2.80;1.87;;;10.30;1.00;;;;;;8314273;28;20258;-81
2023/12/29 13:11:43;;;;;;;7.97;2.10;;;10.10;1.00;;;;;;8305845;28;20195;-80
2023/12/29 13:15:51;;;;;;;3.83;1.80;;;10.00;1.00;;;;;;8276532;28;20214;-80
2023/12/29 13:19:58;;;;;;;2.77;1.70;;;9.90;1.00;;;;;;8282396;28;20201;-79
2023/12/29 13:24:03;;;;;;;3.27;1.60;;;9.80;1.00;;;;;;8287173;28;20193;-80
2023/12/29 13:28:14;;;;;;;3.83;1.67;;;9.80;1.00;;;;;;8280440;28;20218;-79
2023/12/29 13:32:38;;;;;;;3.73;2.93;;;9.70;1.00;;;;;;8275267;28;20187;-78
2023/12/29 13:36:52;;;;;;;3.33;2.60;;;9.60;1.00;;;;;;8273666;28;20190;-78
2023/12/29 13:41:05;;;;;;;2.80;2.00;;;9.60;1.00;;;;;;8279650;28;20206;-78
2023/12/29 13:45:12;;;;;;;2.10;1.43;;;9.60;1.00;;;;;;8271049;28;20239;-79
2023/12/29 13:49:15;;;;;;;2.87;1.50;;;9.60;1.00;;;;;;8271667;28;20216;-80
2023/12/29 13:53:22;;;;;;;4.20;1.70;;;9.70;1.00;;;;;;8264420;28;20194;-79
2023/12/29 13:57:35;;;;;;;2.93;1.93;;;9.70;1.00;;;;;;8263108;28;20228;-79
2023/12/29 14:01:37;;;;;;;3.33;1.80;;;9.60;1.00;;;;;;8264723;28;20284;-79
2023/12/29 14:05:51;;;;;;;2.43;1.83;;;9.50;1.00;;;;;;8279680;28;20208;-78
2023/12/29 14:09:55;;;;;;;3.47;1.80;;;9.40;1.00;;;;;;8268037;28;20231;-79
2023/12/29 14:13:57;;;;;;;3.23;1.80;;;9.30;1.00;;;;;;8270364;28;20214;-79
2023/12/29 14:17:58;;;;;;;2.40;1.67;;;9.20;1.00;;;;;;8265586;28;20601;-79
2023/12/29 14:22:00;;;;;;;3.87;1.97;;;9.10;1.00;;;;;;8270413;28;20199;-79
2023/12/29 14:26:04;;;;;;;3.13;1.97;;;9.10;1.00;;;;;;8266471;28;20205;-78
2023/12/29 14:30:18;;;;;;;4.67;1.63;;;8.90;1.00;;;;;;8279639;28;20228;-78
2023/12/29 14:34:19;;;;;;;2.80;1.70;;;8.80;1.00;;;;;;8262142;28;20259;-79
2023/12/29 14:38:21;;;;;;;4.30;2.20;;;8.80;1.00;;;;;;8272700;28;20189;-79
2023/12/29 14:42:22;;;;;;;2.63;1.90;;;8.70;1.00;;;;;;8265229;28;20439;-79
2023/12/29 14:46:23;;;;;;;9.07;4.90;;;8.60;1.00;;;;;;8267256;28;21079;-79
2023/12/29 14:50:24;;;;;;;3.63;2.00;;;8.60;1.00;;;;;;8267893;28;20219;-79
2023/12/29 14:54:26;;;;;;;3.77;1.93;;;8.60;1.00;;;;;;8267767;28;20254;-79
2023/12/29 14:58:30;;;;;;;3.53;1.87;;;8.50;1.00;;;;;;8277955;28;20211;-78
2023/12/29 15:02:30;;;;;;;3.53;2.20;;;8.60;1.00;;;;;;8274984;28;20196;-78
2023/12/29 15:06:31;;;;;;;4.43;1.80;;;8.70;1.00;;;;;;8286866;28;20227;-79
2023/12/29 15:10:34;;;;;;;2.20;1.50;;;8.70;1.00;;;;;;8277473;28;20227;-79
2023/12/29 15:14:35;;;;;;;1.77;1.47;;;8.60;1.00;;;;;;8276730;28;20678;-79
2023/12/29 15:18:36;;;;;;;3.80;2.00;;;8.60;1.00;;;;;;8271488;28;20197;-79
2023/12/29 15:22:37;;;;;;;3.80;1.93;;;8.60;1.00;;;;;;8275952;28;20195;-79
2023/12/29 15:26:38;;;;;;;3.30;1.80;;;8.60;1.00;;;;;;8274837;28;20192;-80
2023/12/29 15:30:38;;;;;;;3.30;1.80;;;8.50;1.00;;;;;;8273610;28;20296;-79
2023/12/29 15:34:39;;;;;;;3.97;1.90;;;8.50;1.00;;;;;;8271509;28;20193;-79
2023/12/29 15:38:40;;;;;;;3.47;1.77;;;8.40;1.00;;;;;;8263599;28;20265;-78
2023/12/29 15:42:41;;;;;;;4.23;2.00;;;8.40;1.00;;;;;;8274565;28;20184;-78
2023/12/29 15:46:42;;;;;;;3.93;1.83;;;8.50;1.00;;;;;;8272683;28;20193;-79
2023/12/29 15:50:43;;;;;;;2.90;1.50;;;8.50;1.00;;;;;;8282411;28;20203;-79
2023/12/29 15:54:44;;;;;;;2.90;1.93;;;8.60;1.00;;;;;;8288295;28;20189;-80
2023/12/29 15:58:46;;;;;;;3.20;2.00;;;8.60;1.00;;;;;;8305086;28;20205;-80
2023/12/29 16:02:47;;;;;;;4.20;2.00;;;8.70;1.00;;;;;;8306173;28;20188;-80
2023/12/29 16:06:48;;;;;;;2.20;1.40;;;8.70;1.00;;;;;;8307125;28;20206;-80
2023/12/29 16:10:49;;;;;;;2.23;1.43;;;8.70;1.00;;;;;;8275003;28;20243;-79
2023/12/29 16:14:50;;;;;;;4.27;1.60;;;8.70;1.00;;;;;;8274019;28;20282;-80
2023/12/29 16:18:50;;;;;;;2.93;1.50;;;8.70;1.00;;;;;;8274450;28;20218;-79
2023/12/29 16:22:52;;;;;;;4.87;1.90;;;8.80;1.00;;;;;;8267900;28;20185;-79
2023/12/29 16:26:54;;;;;;;2.77;1.80;;;8.90;1.00;;;;;;8270965;28;20189;-80
2023/12/29 16:30:54;;;;;;;3.80;2.40;;;8.90;1.00;;;;;;8272463;28;20216;-76
2023/12/29 16:34:55;;;;;;;4.43;2.20;;;8.90;1.00;;;;;;8266140;28;20188;-81
2023/12/29 16:38:58;;;;;;;4.90;2.47;;;9.00;1.00;;;;;;8263266;28;20194;-79
2023/12/29 16:42:59;;;;;;;5.93;2.50;;;9.10;1.00;;;;;;8264840;28;20185;-78
2023/12/29 16:46:59;;;;;;;4.43;2.20;;;9.10;1.00;;;;;;8273909;28;20196;-80
2023/12/29 16:51:01;;;;;;;4.17;2.30;;;9.10;1.00;;;;;;8280044;28;20185;-79
2023/12/29 16:55:05;;;;;;;5.13;2.30;;;9.20;1.00;;;;;;8269209;28;20190;-79
2023/12/29 16:59:06;;;;;;;3.07;1.77;;;9.20;1.00;;;;;;8271981;28;20268;-79
2023/12/29 17:03:07;;;;;;;3.50;2.17;;;9.20;1.00;;;;;;8279503;28;20204;-79
2023/12/29 17:07:09;;;;;;;3.00;1.90;;;9.20;1.00;;;;;;8272330;28;20205;-79
2023/12/29 17:11:10;;;;;;;3.83;2.00;;;9.30;1.00;;;;;;8268906;28;20248;-80
2023/12/29 17:15:12;;;;;;;3.80;2.10;;;9.30;1.00;;;;;;8271161;28;20566;-79
2023/12/29 17:19:16;;;;;;;5.27;2.53;;;9.40;1.00;;;;;;8263072;28;20185;-79
2023/12/29 17:23:17;;;;;;;3.83;2.30;;;9.50;1.00;;;;;;8273998;28;20190;-78
2023/12/29 17:27:18;;;;;;;4.67;2.53;;;9.70;1.00;;;;;;8271109;28;20225;-80
2023/12/29 17:31:19;;;;;;;4.53;2.73;;;9.70;1.00;;;;;;8267566;28;21514;-80
2023/12/29 17:35:23;;;;;;;3.80;2.77;;;9.80;1.00;;;;;;8265463;28;20194;-79
2023/12/29 17:39:24;;;;;;;4.43;2.70;;;9.80;1.00;;;;;;8272133;28;20190;-79
2023/12/29 17:43:25;;;;;;;4.23;2.10;;;9.80;1.00;;;;;;8272774;28;20181;-79
2023/12/29 17:47:27;;;;;;;4.50;2.73;;;9.80;1.00;;;;;;8272406;28;20377;-79
2023/12/29 17:51:28;;;;;;;4.67;2.27;;;9.70;1.00;;;;;;8279222;28;20264;-80
2023/12/29 17:55:29;;;;;;;3.97;1.97;;;9.60;1.00;;;;;;8270990;28;20231;-80
2023/12/29 17:59:31;;;;;;;4.23;1.90;;;9.50;1.00;;;;;;8272780;28;20219;-79
2023/12/29 18:03:32;;;;;;;5.73;1.83;;;9.50;1.00;;;;;;8268554;28;20197;-80
2023/12/29 18:07:36;;;;;;;3.17;2.43;;;9.50;1.00;;;;;;8265605;28;20212;-81
2023/12/29 18:11:38;;;;;;;6.23;2.63;;;9.40;1.00;;;;;;8277320;28;20227;-79
2023/12/29 18:15:39;;;;;;;3.30;2.27;;;9.40;1.00;;;;;;8271511;28;20212;-79
2023/12/29 18:19:41;;;;;;;3.47;2.07;;;9.40;1.00;;;;;;8274018;28;20198;-80
2023/12/29 18:23:42;;;;;;;3.67;2.13;;;9.40;1.00;;;;;;8264969;28;20234;-79
2023/12/29 18:27:44;;;;;;;3.83;2.20;;;9.50;1.00;;;;;;8270796;28;20214;-79
2023/12/29 18:31:46;;;;;;;3.63;2.00;;;9.40;1.00;;;;;;8269621;28;20194;-80
2023/12/29 18:35:47;;;;;;;3.53;2.10;;;9.30;1.00;;;;;;8273217;28;20189;-80
2023/12/29 18:39:48;;;;;;;4.00;2.07;;;9.40;1.00;;;;;;8270635;28;20198;-79
2023/12/29 18:43:50;;;;;;;4.10;1.73;;;9.30;1.00;;;;;;8276745;28;20273;-80
2023/12/29 18:47:51;;;;;;;3.07;2.27;;;9.30;1.00;;;;;;8282423;28;20202;-79
2023/12/29 18:51:54;;;;;;;3.13;1.70;;;9.40;1.00;;;;;;8300065;28;20243;-80
2023/12/29 18:55:58;;;;;;;7.47;1.87;;;9.40;1.00;;;;;;8305695;28;20211;-80
2023/12/29 18:59:59;;;;;;;2.03;1.50;;;9.40;1.00;;;;;;8302443;28;20224;-80
2023/12/29 19:04:00;;;;;;;3.57;2.40;;;9.40;1.00;;;;;;8261321;28;20279;-80
2023/12/29 19:08:04;;;;;;;3.57;1.90;;;9.40;1.00;;;;;;8274525;28;20273;-80
2023/12/29 19:12:06;;;;;;;3.57;1.90;;;9.40;1.00;;;;;;8277598;28;20192;-80
2023/12/29 19:16:27;;;;;;;5.43;2.33;;;9.30;1.00;;;;;;8275263;28;20222;-80
2023/12/29 19:20:33;;;;;;;3.77;2.10;;;9.30;1.00;;;;;;8270689;28;20198;-80
2023/12/29 19:24:38;;;;;;;3.43;2.00;;;9.40;1.00;;;;;;8250849;28;20229;-79
2023/12/29 19:28:39;;;;;;;4.40;2.07;;;9.40;1.00;;;;;;8249047;28;20210;-80
2023/12/29 19:32:42;;;;;;;5.27;2.57;;;9.30;1.00;;;;;;8247205;28;20194;-79
2023/12/29 19:36:43;;;;;;;3.83;2.10;;;9.30;1.00;;;;;;8249646;28;20193;-79
2023/12/29 19:40:45;;;;;;;4.50;2.03;;;9.40;1.00;;;;;;8244507;28;20198;-78
2023/12/29 19:44:46;;;;;;;2.90;2.00;;;9.50;1.00;;;;;;8249800;28;20242;-79
2023/12/29 19:48:47;;;;;;;3.73;1.73;;;9.60;1.00;;;;;;8251989;28;20223;-79
2023/12/29 19:52:48;;;;;;;2.67;1.70;;;9.80;1.00;;;;;;8250419;28;20195;-79
2023/12/29 19:56:51;;;;;;;2.10;1.67;;;9.90;1.00;;;;;;8269961;28;20192;-80
2023/12/29 20:00:53;;;;;;;2.47;1.40;;;10.00;1.00;;;;;;8246856;28;20190;-80
2023/12/29 20:04:54;;;;;;;2.40;1.57;;;9.90;1.00;;;;;;8264476;28;20226;-79
2023/12/29 20:08:55;;;;;;;2.07;1.40;;;9.80;1.00;;;;;;8267387;28;20222;-79
2023/12/29 20:12:55;;;;;;;3.17;1.30;;;9.80;1.00;;;;;;8246606;28;20184;-80
2023/12/29 20:16:56;;;;;;;2.40;1.20;;;9.80;1.00;;;;;;8260651;28;20214;-80
2023/12/29 20:20:57;;;;;;;3.63;1.20;;;9.80;1.00;;;;;;8244542;28;20322;-80
2023/12/29 20:24:58;;;;;;;1.40;1.10;;;9.80;1.00;;;;;;8246665;28;20284;-77
2023/12/29 20:28:59;;;;;;;2.00;1.10;;;9.80;1.00;;;;;;8237255;28;20222;-79
2023/12/29 20:33:00;;;;;;;2.10;1.40;;;9.80;1.00;;;;;;8245242;28;20275;-79
2023/12/29 20:37:01;;;;;;;2.67;1.50;;;9.80;1.00;;;;;;8238442;28;20183;-78
2023/12/29 20:41:02;;;;;;;2.73;1.43;;;9.90;1.00;;;;;;8240895;28;20191;-79
2023/12/29 20:45:04;;;;;;;2.40;1.60;;;9.90;1.00;;;;;;8244556;28;20199;-80
2023/12/29 20:49:04;;;;;;;2.37;1.47;;;10.00;1.00;;;;;;8242418;28;20226;-79
2023/12/29 20:53:05;;;;;;;3.43;1.37;;;10.00;1.00;;;;;;8244948;28;20288;-79
2023/12/29 20:57:06;;;;;;;1.60;1.30;;;10.00;1.00;;;;;;8241515;28;20194;-80
2023/12/29 21:01:08;;;;;;;1.43;1.30;;;10.00;1.00;;;;;;8243806;28;20210;-79
2023/12/29 21:05:09;;;;;;;3.13;1.33;;;10.00;1.00;;;;;;8241507;28;20330;-79
2023/12/29 21:09:12;;;;;;;1.87;1.13;;;10.00;1.00;;;;;;8241137;28;20219;-79
2023/12/29 21:13:13;;;;;;;2.20;1.40;;;10.00;1.00;;;;;;8256645;28;20784;-78
2023/12/29 21:17:14;;;;;;;1.23;1.10;;;10.00;1.00;;;;;;8244340;28;20292;-78
2023/12/29 21:21:18;;;;;;;1.30;1.00;;;10.00;1.00;;;;;;8246909;28;20187;-78
2023/12/29 21:25:19;;;;;;;2.10;1.30;;;10.10;1.00;;;;;;8246530;28;20179;-78
2023/12/29 21:29:20;;;;;;;2.27;1.20;;;10.10;1.00;;;;;;8258432;28;20668;-79